sensor_id;sensor_type;location;lat;lon;timestamp;pressure;altitude;pressure_sealevel;temperature;humidity
66479;BME280;53294;47.912;13.526;2023-02-01T00:00:27;96652.84;;;1.88;77.29
66479;BME280;53294;47.912;13.526;2023-02-01T00:02:54;96659.50;;;1.91;77.04
66479;BME280;53294;47.912;13.526;2023-02-01T00:05:20;96649.88;;;2.08;76.60
66479;BME280;53294;47.912;13.526;2023-02-01T00:07:47;96659.19;;;2.11;75.48
66479;BME280;53294;47.912;13.526;2023-02-01T00:10:15;96656.44;;;2.06;76.17
66479;BME280;53294;47.912;13.526;2023-02-01T00:12:42;96664.03;;;2.14;76.21
66479;BME280;53294;47.912;13.526;2023-02-01T00:15:09;96646.16;;;1.86;76.60
66479;BME280;53294;47.912;13.526;2023-02-01T00:17:36;96659.25;;;1.69;77.76
66479;BME280;53294;47.912;13.526;2023-02-01T00:20:03;96651.72;;;1.54;78.72
66479;BME280;53294;47.912;13.526;2023-02-01T00:22:30;96660.38;;;1.49;79.36
66479;BME280;53294;47.912;13.526;2023-02-01T00:24:57;96656.72;;;1.62;79.11
66479;BME280;53294;47.912;13.526;2023-02-01T00:27:23;96657.22;;;1.52;79.78
66479;BME280;53294;47.912;13.526;2023-02-01T00:29:50;96647.56;;;1.46;80.63
66479;BME280;53294;47.912;13.526;2023-02-01T00:32:17;96647.56;;;1.46;80.83
66479;BME280;53294;47.912;13.526;2023-02-01T00:34:43;96644.66;;;1.36;81.65
66479;BME280;53294;47.912;13.526;2023-02-01T00:37:10;96644.19;;;1.39;81.88
66479;BME280;53294;47.912;13.526;2023-02-01T00:39:36;96635.69;;;1.37;82.16
66479;BME280;53294;47.912;13.526;2023-02-01T00:42:03;96635.00;;;1.41;81.81
66479;BME280;53294;47.912;13.526;2023-02-01T00:44:30;96642.84;;;1.48;81.42
66479;BME280;53294;47.912;13.526;2023-02-01T00:47:00;96651.56;;;1.37;82.17
66479;BME280;53294;47.912;13.526;2023-02-01T00:49:27;96649.44;;;1.27;82.82
66479;BME280;53294;47.912;13.526;2023-02-01T00:51:55;96652.75;;;1.22;83.18
66479;BME280;53294;47.912;13.526;2023-02-01T00:54:21;96645.41;;;1.24;83.21
66479;BME280;53294;47.912;13.526;2023-02-01T00:56:49;96651.22;;;1.15;83.79
66479;BME280;53294;47.912;13.526;2023-02-01T00:59:15;96643.97;;;1.10;84.13
66479;BME280;53294;47.912;13.526;2023-02-01T01:01:42;96623.22;;;1.07;84.83
66479;BME280;53294;47.912;13.526;2023-02-01T01:04:09;96623.69;;;1.04;84.96
66479;BME280;53294;47.912;13.526;2023-02-01T01:06:36;96605.31;;;1.09;85.04
66479;BME280;53294;47.912;13.526;2023-02-01T01:09:06;96599.56;;;1.12;84.53
66479;BME280;53294;47.912;13.526;2023-02-01T01:11:36;96612.66;;;1.07;85.16
66479;BME280;53294;47.912;13.526;2023-02-01T01:14:04;96602.34;;;1.17;84.56
66479;BME280;53294;47.912;13.526;2023-02-01T01:16:31;96610.78;;;1.26;83.94
66479;BME280;53294;47.912;13.526;2023-02-01T01:18:59;96607.00;;;1.34;83.73
66479;BME280;53294;47.912;13.526;2023-02-01T01:21:26;96612.31;;;1.34;83.70
66479;BME280;53294;47.912;13.526;2023-02-01T01:23:53;96628.88;;;1.41;83.55
66479;BME280;53294;47.912;13.526;2023-02-01T01:26:25;96622.91;;;1.34;84.52
66479;BME280;53294;47.912;13.526;2023-02-01T01:28:52;96611.75;;;1.43;83.79
66479;BME280;53294;47.912;13.526;2023-02-01T01:31:20;96602.22;;;1.54;83.27
66479;BME280;53294;47.912;13.526;2023-02-01T01:33:49;96616.03;;;1.45;83.97
66479;BME280;53294;47.912;13.526;2023-02-01T01:36:16;96603.03;;;1.55;83.83
66479;BME280;53294;47.912;13.526;2023-02-01T01:38:43;96604.31;;;1.64;83.60
66479;BME280;53294;47.912;13.526;2023-02-01T01:41:14;96599.97;;;1.70;83.53
66479;BME280;53294;47.912;13.526;2023-02-01T01:44:00;96604.78;;;1.73;82.85
66479;BME280;53294;47.912;13.526;2023-02-01T01:46:30;96596.72;;;1.68;83.86
66479;BME280;53294;47.912;13.526;2023-02-01T01:49:08;96598.78;;;1.66;84.03
66479;BME280;53294;47.912;13.526;2023-02-01T01:51:47;96609.38;;;1.66;84.07
66479;BME280;53294;47.912;13.526;2023-02-01T01:54:21;96595.78;;;1.74;83.53
66479;BME280;53294;47.912;13.526;2023-02-01T01:56:53;96587.28;;;1.72;83.81
66479;BME280;53294;47.912;13.526;2023-02-01T01:59:23;96588.78;;;1.79;83.41
66479;BME280;53294;47.912;13.526;2023-02-01T02:01:51;96583.16;;;1.76;83.28
66479;BME280;53294;47.912;13.526;2023-02-01T02:04:19;96587.84;;;1.74;82.98
66479;BME280;53294;47.912;13.526;2023-02-01T02:06:51;96592.38;;;1.85;82.85
66479;BME280;53294;47.912;13.526;2023-02-01T02:09:21;96578.88;;;1.75;82.96
66479;BME280;53294;47.912;13.526;2023-02-01T02:11:48;96577.94;;;1.69;83.58
66479;BME280;53294;47.912;13.526;2023-02-01T02:14:17;96584.97;;;1.64;83.37
66479;BME280;53294;47.912;13.526;2023-02-01T02:22:48;96572.88;;;1.68;82.96
66479;BME280;53294;47.912;13.526;2023-02-01T02:38:56;96548.34;;;1.72;80.97
66479;BME280;53294;47.912;13.526;2023-02-01T02:41:40;96556.19;;;1.79;80.48
66479;BME280;53294;47.912;13.526;2023-02-01T02:44:55;96564.16;;;1.79;80.30
66479;BME280;53294;47.912;13.526;2023-02-01T02:50:41;96569.44;;;1.79;80.08
66479;BME280;53294;47.912;13.526;2023-02-01T02:53:33;96576.78;;;1.77;81.12
66479;BME280;53294;47.912;13.526;2023-02-01T02:56:20;96557.91;;;1.73;81.24
66479;BME280;53294;47.912;13.526;2023-02-01T02:59:09;96559.31;;;1.76;81.50
66479;BME280;53294;47.912;13.526;2023-02-01T03:01:57;96558.72;;;1.74;81.58
66479;BME280;53294;47.912;13.526;2023-02-01T03:04:42;96571.97;;;1.74;81.91
66479;BME280;53294;47.912;13.526;2023-02-01T03:10:05;96562.88;;;1.70;82.16
66479;BME280;53294;47.912;13.526;2023-02-01T03:12:37;96563.78;;;1.64;82.43
66479;BME280;53294;47.912;13.526;2023-02-01T03:15:34;96562.03;;;1.69;82.20
66479;BME280;53294;47.912;13.526;2023-02-01T03:18:05;96546.63;;;1.78;81.46
66479;BME280;53294;47.912;13.526;2023-02-01T03:20:33;96538.69;;;1.78;81.34
66479;BME280;53294;47.912;13.526;2023-02-01T03:23:02;96539.59;;;1.72;81.15
66479;BME280;53294;47.912;13.526;2023-02-01T03:25:33;96529.00;;;1.72;81.79
66479;BME280;53294;47.912;13.526;2023-02-01T03:28:04;96537.19;;;1.70;81.63
66479;BME280;53294;47.912;13.526;2023-02-01T03:30:42;96535.47;;;1.76;82.03
66479;BME280;53294;47.912;13.526;2023-02-01T03:33:13;96523.94;;;1.70;82.08
66479;BME280;53294;47.912;13.526;2023-02-01T03:38:40;96539.00;;;1.58;83.37
66479;BME280;53294;47.912;13.526;2023-02-01T03:43:59;96541.88;;;1.56;83.18
66479;BME280;53294;47.912;13.526;2023-02-01T03:46:32;96553.28;;;1.57;83.08
66479;BME280;53294;47.912;13.526;2023-02-01T03:49:06;96564.44;;;1.47;83.40
66479;BME280;53294;47.912;13.526;2023-02-01T03:51:36;96564.56;;;1.52;83.95
66479;BME280;53294;47.912;13.526;2023-02-01T03:54:06;96568.25;;;1.63;83.15
66479;BME280;53294;47.912;13.526;2023-02-01T03:56:36;96573.94;;;1.67;82.86
66479;BME280;53294;47.912;13.526;2023-02-01T03:59:04;96567.22;;;1.64;82.99
66479;BME280;53294;47.912;13.526;2023-02-01T04:01:31;96550.44;;;1.70;82.61
66479;BME280;53294;47.912;13.526;2023-02-01T04:03:58;96551.38;;;1.76;81.62
66479;BME280;53294;47.912;13.526;2023-02-01T04:06:25;96547.78;;;1.82;81.53
66479;BME280;53294;47.912;13.526;2023-02-01T04:08:51;96546.03;;;1.88;81.53
66479;BME280;53294;47.912;13.526;2023-02-01T04:11:18;96539.25;;;1.92;80.96
66479;BME280;53294;47.912;13.526;2023-02-01T04:13:45;96539.38;;;1.85;81.37
66479;BME280;53294;47.912;13.526;2023-02-01T04:16:12;96528.44;;;1.82;81.30
66479;BME280;53294;47.912;13.526;2023-02-01T04:18:38;96522.00;;;1.77;81.78
66479;BME280;53294;47.912;13.526;2023-02-01T04:21:05;96532.69;;;1.71;81.53
66479;BME280;53294;47.912;13.526;2023-02-01T04:23:32;96535.81;;;1.79;81.02
66479;BME280;53294;47.912;13.526;2023-02-01T04:26:00;96537.06;;;1.77;80.99
66479;BME280;53294;47.912;13.526;2023-02-01T04:28:28;96528.66;;;1.80;80.95
66479;BME280;53294;47.912;13.526;2023-02-01T04:30:55;96532.22;;;1.86;80.34
66479;BME280;53294;47.912;13.526;2023-02-01T04:33:22;96518.53;;;1.89;80.45
66479;BME280;53294;47.912;13.526;2023-02-01T04:35:49;96527.50;;;1.88;80.55
66479;BME280;53294;47.912;13.526;2023-02-01T04:38:15;96519.78;;;1.86;80.56
66479;BME280;53294;47.912;13.526;2023-02-01T04:40:43;96519.22;;;1.96;80.48
66479;BME280;53294;47.912;13.526;2023-02-01T04:43:09;96511.97;;;1.91;80.84
66479;BME280;53294;47.912;13.526;2023-02-01T04:45:36;96518.41;;;1.95;80.29
66479;BME280;53294;47.912;13.526;2023-02-01T04:48:03;96504.03;;;1.91;80.75
66479;BME280;53294;47.912;13.526;2023-02-01T04:50:29;96507.34;;;1.98;80.45
66479;BME280;53294;47.912;13.526;2023-02-01T04:52:56;96496.97;;;2.09;80.26
66479;BME280;53294;47.912;13.526;2023-02-01T04:55:22;96497.91;;;2.03;79.87
66479;BME280;53294;47.912;13.526;2023-02-01T04:57:49;96498.22;;;2.06;79.65
66479;BME280;53294;47.912;13.526;2023-02-01T05:00:16;96497.91;;;2.03;80.21
66479;BME280;53294;47.912;13.526;2023-02-01T05:02:43;96498.81;;;2.08;79.94
66479;BME280;53294;47.912;13.526;2023-02-01T05:05:09;96491.41;;;2.22;79.53
66479;BME280;53294;47.912;13.526;2023-02-01T05:07:36;96488.91;;;2.04;80.03
66479;BME280;53294;47.912;13.526;2023-02-01T05:10:03;96487.53;;;2.13;79.56
66479;BME280;53294;47.912;13.526;2023-02-01T05:12:30;96486.94;;;2.11;79.97
66479;BME280;53294;47.912;13.526;2023-02-01T05:15:15;96482.41;;;2.23;79.00
66479;BME280;53294;47.912;13.526;2023-02-01T05:17:41;96476.63;;;2.26;78.46
66479;BME280;53294;47.912;13.526;2023-02-01T05:20:09;96478.25;;;2.27;78.16
66479;BME280;53294;47.912;13.526;2023-02-01T05:22:35;96478.41;;;2.21;78.66
66479;BME280;53294;47.912;13.526;2023-02-01T05:25:02;96485.28;;;2.22;78.07
66479;BME280;53294;47.912;13.526;2023-02-01T05:27:30;96482.50;;;2.28;77.80
66479;BME280;53294;47.912;13.526;2023-02-01T05:29:56;96468.78;;;2.31;77.80
66479;BME280;53294;47.912;13.526;2023-02-01T05:32:23;96486.31;;;2.32;77.48
66479;BME280;53294;47.912;13.526;2023-02-01T05:34:50;96489.72;;;2.45;77.25
66479;BME280;53294;47.912;13.526;2023-02-01T05:37:17;96486.50;;;2.43;77.40
66479;BME280;53294;47.912;13.526;2023-02-01T05:39:43;96498.72;;;2.44;77.01
66479;BME280;53294;47.912;13.526;2023-02-01T05:42:10;96493.16;;;2.45;77.32
66479;BME280;53294;47.912;13.526;2023-02-01T05:44:36;96497.13;;;2.43;77.33
66479;BME280;53294;47.912;13.526;2023-02-01T05:47:03;96488.47;;;2.47;77.20
66479;BME280;53294;47.912;13.526;2023-02-01T05:49:30;96485.75;;;2.59;77.37
66479;BME280;53294;47.912;13.526;2023-02-01T05:51:57;96487.84;;;2.57;76.54
66479;BME280;53294;47.912;13.526;2023-02-01T05:54:26;96474.03;;;2.55;76.59
66479;BME280;53294;47.912;13.526;2023-02-01T05:56:52;96465.69;;;2.63;75.98
66479;BME280;53294;47.912;13.526;2023-02-01T05:59:19;96470.66;;;2.60;75.69
66479;BME280;53294;47.912;13.526;2023-02-01T06:01:46;96460.38;;;2.63;75.28
66479;BME280;53294;47.912;13.526;2023-02-01T06:04:12;96479.97;;;2.62;75.00
66479;BME280;53294;47.912;13.526;2023-02-01T06:06:39;96477.44;;;2.67;75.04
66479;BME280;53294;47.912;13.526;2023-02-01T06:09:06;96466.66;;;2.74;74.79
66479;BME280;53294;47.912;13.526;2023-02-01T06:11:32;96473.25;;;2.72;74.45
66479;BME280;53294;47.912;13.526;2023-02-01T06:13:59;96466.34;;;2.71;74.80
66479;BME280;53294;47.912;13.526;2023-02-01T06:16:26;96464.81;;;2.75;74.97
66479;BME280;53294;47.912;13.526;2023-02-01T06:18:53;96460.66;;;2.79;74.94
66479;BME280;53294;47.912;13.526;2023-02-01T06:21:20;96471.66;;;2.71;74.21
66479;BME280;53294;47.912;13.526;2023-02-01T06:23:51;96471.81;;;2.81;74.02
66479;BME280;53294;47.912;13.526;2023-02-01T06:26:18;96471.81;;;2.81;73.51
66479;BME280;53294;47.912;13.526;2023-02-01T06:28:45;96467.00;;;2.78;73.11
66479;BME280;53294;47.912;13.526;2023-02-01T06:31:12;96471.81;;;2.81;73.76
66479;BME280;53294;47.912;13.526;2023-02-01T06:33:39;96456.72;;;2.81;72.82
66479;BME280;53294;47.912;13.526;2023-02-01T06:36:07;96457.84;;;2.85;73.20
66479;BME280;53294;47.912;13.526;2023-02-01T06:38:35;96458.44;;;2.87;73.00
66479;BME280;53294;47.912;13.526;2023-02-01T06:41:02;96459.69;;;2.85;73.34
66479;BME280;53294;47.912;13.526;2023-02-01T06:43:30;96461.41;;;2.91;72.88
66479;BME280;53294;47.912;13.526;2023-02-01T06:46:05;96474.66;;;2.91;73.04
66479;BME280;53294;47.912;13.526;2023-02-01T06:48:33;96478.22;;;2.97;72.30
66479;BME280;53294;47.912;13.526;2023-02-01T06:51:00;96489.16;;;3.00;72.05
66479;BME280;53294;47.912;13.526;2023-02-01T06:53:28;96490.19;;;2.99;72.35
66479;BME280;53294;47.912;13.526;2023-02-01T06:55:57;96487.47;;;2.94;72.24
66479;BME280;53294;47.912;13.526;2023-02-01T06:58:28;96481.66;;;2.97;71.89
66479;BME280;53294;47.912;13.526;2023-02-01T07:00:55;96482.31;;;3.04;72.15
66479;BME280;53294;47.912;13.526;2023-02-01T07:03:22;96461.47;;;2.96;71.69
66479;BME280;53294;47.912;13.526;2023-02-01T07:05:48;96473.47;;;2.99;72.11
66479;BME280;53294;47.912;13.526;2023-02-01T07:08:15;96470.50;;;2.95;72.54
66479;BME280;53294;47.912;13.526;2023-02-01T07:10:42;96471.94;;;3.03;71.88
66479;BME280;53294;47.912;13.526;2023-02-01T07:13:08;96457.84;;;3.02;72.05
66479;BME280;53294;47.912;13.526;2023-02-01T07:15:35;96468.78;;;3.06;71.86
66479;BME280;53294;47.912;13.526;2023-02-01T07:18:02;96460.59;;;3.08;72.60
66479;BME280;53294;47.912;13.526;2023-02-01T07:20:28;96467.53;;;3.09;72.65
66479;BME280;53294;47.912;13.526;2023-02-01T07:22:56;96462.13;;;3.03;72.27
66479;BME280;53294;47.912;13.526;2023-02-01T07:25:23;96468.00;;;3.05;72.58
66479;BME280;53294;47.912;13.526;2023-02-01T07:27:50;96476.53;;;3.08;72.52
66479;BME280;53294;47.912;13.526;2023-02-01T07:30:17;96463.66;;;3.16;72.55
66479;BME280;53294;47.912;13.526;2023-02-01T07:32:44;96475.47;;;3.09;72.17
66479;BME280;53294;47.912;13.526;2023-02-01T07:35:11;96478.78;;;3.16;71.88
66479;BME280;53294;47.912;13.526;2023-02-01T07:37:37;96470.72;;;3.11;72.14
66479;BME280;53294;47.912;13.526;2023-02-01T07:40:04;96483.53;;;3.14;71.73
66479;BME280;53294;47.912;13.526;2023-02-01T07:42:31;96465.13;;;3.24;71.07
66479;BME280;53294;47.912;13.526;2023-02-01T07:44:58;96469.94;;;3.27;70.78
66479;BME280;53294;47.912;13.526;2023-02-01T07:47:40;96468.44;;;3.31;70.43
66479;BME280;53294;47.912;13.526;2023-02-01T07:50:07;96458.59;;;3.32;70.41
66479;BME280;53294;47.912;13.526;2023-02-01T07:52:34;96458.03;;;3.30;70.67
66479;BME280;53294;47.912;13.526;2023-02-01T07:55:00;96469.78;;;3.34;70.33
66479;BME280;53294;47.912;13.526;2023-02-01T07:57:27;96460.28;;;3.38;69.87
66479;BME280;53294;47.912;13.526;2023-02-01T07:59:54;96458.84;;;3.47;69.59
66479;BME280;53294;47.912;13.526;2023-02-01T08:02:38;96445.25;;;3.44;69.19
66479;BME280;53294;47.912;13.526;2023-02-01T08:05:05;96450.31;;;3.45;69.10
66479;BME280;53294;47.912;13.526;2023-02-01T08:07:32;96439.28;;;3.53;69.17
66479;BME280;53294;47.912;13.526;2023-02-01T08:09:59;96427.44;;;3.44;68.63
66479;BME280;53294;47.912;13.526;2023-02-01T08:12:26;96429.13;;;3.50;68.88
66479;BME280;53294;47.912;13.526;2023-02-01T08:14:53;96433.72;;;3.55;68.21
66479;BME280;53294;47.912;13.526;2023-02-01T08:17:20;96441.75;;;3.60;68.26
66479;BME280;53294;47.912;13.526;2023-02-01T08:19:46;96434.84;;;3.59;68.61
66479;BME280;53294;47.912;13.526;2023-02-01T08:22:13;96447.41;;;3.64;67.87
66479;BME280;53294;47.912;13.526;2023-02-01T08:24:39;96440.72;;;3.61;67.59
66479;BME280;53294;47.912;13.526;2023-02-01T08:27:07;96438.69;;;3.68;67.36
66479;BME280;53294;47.912;13.526;2023-02-01T08:29:34;96435.47;;;3.66;67.32
66479;BME280;53294;47.912;13.526;2023-02-01T08:32:01;96432.25;;;3.64;67.44
66479;BME280;53294;47.912;13.526;2023-02-01T08:34:28;96447.69;;;3.67;66.90
66479;BME280;53294;47.912;13.526;2023-02-01T08:36:54;96438.69;;;3.68;66.22
66479;BME280;53294;47.912;13.526;2023-02-01T08:39:25;96446.47;;;3.75;66.89
66479;BME280;53294;47.912;13.526;2023-02-01T08:41:52;96452.84;;;3.74;66.77
66479;BME280;53294;47.912;13.526;2023-02-01T08:44:48;96446.72;;;3.73;66.17
66479;BME280;53294;47.912;13.526;2023-02-01T08:47:15;96456.88;;;3.76;66.47
66479;BME280;53294;47.912;13.526;2023-02-01T08:49:41;96447.53;;;3.74;65.73
66479;BME280;53294;47.912;13.526;2023-02-01T08:52:08;96440.94;;;3.76;65.88
66479;BME280;53294;47.912;13.526;2023-02-01T08:54:41;96439.00;;;3.72;65.57
66479;BME280;53294;47.912;13.526;2023-02-01T08:57:08;96437.19;;;3.77;65.42
66479;BME280;53294;47.912;13.526;2023-02-01T08:59:35;96461.38;;;3.76;65.21
66479;BME280;53294;47.912;13.526;2023-02-01T09:02:02;96433.50;;;3.78;64.76
66479;BME280;53294;47.912;13.526;2023-02-01T09:04:29;96451.06;;;3.80;64.41
66479;BME280;53294;47.912;13.526;2023-02-01T09:06:55;96468.09;;;3.84;65.45
66479;BME280;53294;47.912;13.526;2023-02-01T09:09:23;96466.03;;;3.86;65.08
66479;BME280;53294;47.912;13.526;2023-02-01T09:11:50;96476.66;;;3.86;64.74
66479;BME280;53294;47.912;13.526;2023-02-01T09:14:16;96470.28;;;3.87;64.55
66479;BME280;53294;47.912;13.526;2023-02-01T09:16:43;96465.44;;;3.84;64.36
66479;BME280;53294;47.912;13.526;2023-02-01T09:19:10;96460.72;;;3.86;64.75
66479;BME280;53294;47.912;13.526;2023-02-01T09:21:51;96460.53;;;3.92;63.92
66479;BME280;53294;47.912;13.526;2023-02-01T09:24:18;96471.16;;;3.92;64.49
66479;BME280;53294;47.912;13.526;2023-02-01T09:26:45;96466.72;;;3.98;64.33
66479;BME280;53294;47.912;13.526;2023-02-01T09:29:12;96464.06;;;3.98;63.62
66479;BME280;53294;47.912;13.526;2023-02-01T09:31:40;96457.13;;;3.97;62.90
66479;BME280;53294;47.912;13.526;2023-02-01T09:34:12;96462.44;;;3.97;63.57
66479;BME280;53294;47.912;13.526;2023-02-01T09:36:38;96466.78;;;4.03;64.09
66479;BME280;53294;47.912;13.526;2023-02-01T09:39:05;96469.75;;;4.07;63.70
66479;BME280;53294;47.912;13.526;2023-02-01T09:41:45;96465.16;;;4.02;63.16
66479;BME280;53294;47.912;13.526;2023-02-01T09:47:35;96446.16;;;4.10;61.81
66479;BME280;53294;47.912;13.526;2023-02-01T09:50:08;96430.69;;;4.07;62.30
66479;BME280;53294;47.912;13.526;2023-02-01T09:52:41;96441.44;;;4.18;62.36
66479;BME280;53294;47.912;13.526;2023-02-01T09:55:16;96440.44;;;4.24;61.85
66479;BME280;53294;47.912;13.526;2023-02-01T09:58:01;96429.88;;;4.29;60.82
66479;BME280;53294;47.912;13.526;2023-02-01T10:00:29;96447.00;;;4.38;61.57
66479;BME280;53294;47.912;13.526;2023-02-01T10:02:56;96447.59;;;4.45;61.52
66479;BME280;53294;47.912;13.526;2023-02-01T10:08:14;96454.63;;;4.57;60.38
66479;BME280;53294;47.912;13.526;2023-02-01T10:10:46;96464.78;;;4.60;60.82
66479;BME280;53294;47.912;13.526;2023-02-01T10:21:31;96454.03;;;4.49;59.45
66479;BME280;53294;47.912;13.526;2023-02-01T10:24:20;96448.72;;;4.49;60.55
66479;BME280;53294;47.912;13.526;2023-02-01T10:27:21;96441.00;;;4.48;58.96
66479;BME280;53294;47.912;13.526;2023-02-01T10:29:55;96437.53;;;4.47;59.40
66479;BME280;53294;47.912;13.526;2023-02-01T10:32:29;96451.38;;;4.49;59.16
66479;BME280;53294;47.912;13.526;2023-02-01T10:34:58;96443.69;;;4.53;58.64
66479;BME280;53294;47.912;13.526;2023-02-01T10:37:31;96444.00;;;4.57;58.88
66479;BME280;53294;47.912;13.526;2023-02-01T10:40:24;96454.47;;;4.63;59.21
66479;BME280;53294;47.912;13.526;2023-02-01T10:43:00;96468.06;;;4.67;59.83
66479;BME280;53294;47.912;13.526;2023-02-01T10:45:29;96460.88;;;4.67;59.84
66479;BME280;53294;47.912;13.526;2023-02-01T10:47:58;96465.66;;;4.65;59.22
66479;BME280;53294;47.912;13.526;2023-02-01T10:50:46;96453.97;;;4.66;59.22
66479;BME280;53294;47.912;13.526;2023-02-01T10:53:28;96449.44;;;4.67;59.25
66479;BME280;53294;47.912;13.526;2023-02-01T10:55:57;96451.84;;;4.68;59.72
66479;BME280;53294;47.912;13.526;2023-02-01T10:58:29;96460.38;;;4.71;58.68
66479;BME280;53294;47.912;13.526;2023-02-01T11:01:01;96467.56;;;4.70;59.12
66479;BME280;53294;47.912;13.526;2023-02-01T11:05:58;96475.09;;;4.78;59.22
66479;BME280;53294;47.912;13.526;2023-02-01T11:08:25;96465.94;;;4.69;58.82
66479;BME280;53294;47.912;13.526;2023-02-01T11:11:03;96464.94;;;4.75;59.14
66479;BME280;53294;47.912;13.526;2023-02-01T11:13:37;96460.97;;;4.78;58.69
66479;BME280;53294;47.912;13.526;2023-02-01T11:16:05;96464.41;;;4.73;59.58
66479;BME280;53294;47.912;13.526;2023-02-01T11:18:36;96468.44;;;4.76;59.51
66479;BME280;53294;47.912;13.526;2023-02-01T11:21:05;96452.22;;;4.77;59.25
66479;BME280;53294;47.912;13.526;2023-02-01T11:23:33;96449.44;;;4.67;59.27
66479;BME280;53294;47.912;13.526;2023-02-01T11:26:10;96449.44;;;4.67;59.08
66479;BME280;53294;47.912;13.526;2023-02-01T11:28:39;96451.56;;;4.65;59.27
66479;BME280;53294;47.912;13.526;2023-02-01T11:31:10;96450.97;;;4.63;59.75
66479;BME280;53294;47.912;13.526;2023-02-01T11:33:45;96440.41;;;4.68;59.51
66479;BME280;53294;47.912;13.526;2023-02-01T11:36:16;96438.28;;;4.70;59.47
66479;BME280;53294;47.912;13.526;2023-02-01T11:39:06;96450.53;;;4.71;59.65
66479;BME280;53294;47.912;13.526;2023-02-01T11:42:00;96437.50;;;4.70;59.45
66479;BME280;53294;47.912;13.526;2023-02-01T11:44:37;96445.72;;;4.68;60.06
66479;BME280;53294;47.912;13.526;2023-02-01T11:47:24;96440.16;;;4.70;59.91
66479;BME280;53294;47.912;13.526;2023-02-01T11:49:57;96435.66;;;4.75;60.02
66479;BME280;53294;47.912;13.526;2023-02-01T11:58:31;96418.44;;;4.83;59.83
66479;BME280;53294;47.912;13.526;2023-02-01T12:01:12;96411.34;;;4.94;59.71
66479;BME280;53294;47.912;13.526;2023-02-01T12:25:29;96416.78;;;5.04;58.88
66479;BME280;53294;47.912;13.526;2023-02-01T12:33:31;96409.81;;;5.03;58.56
66479;BME280;53294;47.912;13.526;2023-02-01T12:36:12;96408.56;;;5.11;58.71
66479;BME280;53294;47.912;13.526;2023-02-01T12:38:54;96396.06;;;5.11;58.67
66479;BME280;53294;47.912;13.526;2023-02-01T12:41:37;96394.97;;;5.07;59.38
66479;BME280;53294;47.912;13.526;2023-02-01T12:44:31;96390.75;;;5.11;59.33
66479;BME280;53294;47.912;13.526;2023-02-01T12:47:53;96395.34;;;5.21;59.02
66479;BME280;53294;47.912;13.526;2023-02-01T12:50:33;96382.28;;;5.19;58.39
66479;BME280;53294;47.912;13.526;2023-02-01T12:53:15;96384.41;;;5.22;58.64
66479;BME280;53294;47.912;13.526;2023-02-01T12:55:50;96397.50;;;5.29;58.43
66479;BME280;53294;47.912;13.526;2023-02-01T12:58:44;96386.50;;;5.15;58.23
66479;BME280;53294;47.912;13.526;2023-02-01T13:01:15;96385.47;;;5.21;58.68
66479;BME280;53294;47.912;13.526;2023-02-01T13:06:55;96391.09;;;5.25;57.74
66479;BME280;53294;47.912;13.526;2023-02-01T13:12:11;96400.44;;;5.28;57.63
66479;BME280;53294;47.912;13.526;2023-02-01T13:15:00;96397.78;;;5.33;57.70
66479;BME280;53294;47.912;13.526;2023-02-01T13:17:32;96383.38;;;5.24;57.24
66479;BME280;53294;47.912;13.526;2023-02-01T13:20:14;96396.50;;;5.03;57.68
66479;BME280;53294;47.912;13.526;2023-02-01T13:22:50;96399.63;;;4.90;57.24
66479;BME280;53294;47.912;13.526;2023-02-01T13:25:28;96401.28;;;4.96;58.58
66479;BME280;53294;47.912;13.526;2023-02-01T13:28:00;96393.56;;;4.99;56.87
66479;BME280;53294;47.912;13.526;2023-02-01T13:30:38;96400.19;;;4.97;57.48
66479;BME280;53294;47.912;13.526;2023-02-01T13:41:28;96406.97;;;4.77;58.86
66479;BME280;53294;47.912;13.526;2023-02-01T13:44:03;96401.78;;;4.65;58.50
66479;BME280;53294;47.912;13.526;2023-02-01T13:46:39;96392.44;;;4.63;59.00
66479;BME280;53294;47.912;13.526;2023-02-01T13:49:06;96412.19;;;4.67;59.42
66479;BME280;53294;47.912;13.526;2023-02-01T13:51:41;96407.09;;;4.65;59.73
66479;BME280;53294;47.912;13.526;2023-02-01T13:54:39;96417.38;;;4.57;59.54
66479;BME280;53294;47.912;13.526;2023-02-01T13:57:29;96408.31;;;4.53;59.62
66479;BME280;53294;47.912;13.526;2023-02-01T14:03:06;96424.06;;;4.59;59.96
66479;BME280;53294;47.912;13.526;2023-02-01T14:10:53;96426.66;;;4.49;60.40
66479;BME280;53294;47.912;13.526;2023-02-01T14:21:19;96440.19;;;4.47;60.14
66479;BME280;53294;47.912;13.526;2023-02-01T14:26:25;96446.56;;;4.46;59.64
66479;BME280;53294;47.912;13.526;2023-02-01T14:29:22;96444.91;;;4.40;59.74
66479;BME280;53294;47.912;13.526;2023-02-01T14:55:59;96459.13;;;4.29;58.85
66479;BME280;53294;47.912;13.526;2023-02-01T14:58:48;96457.38;;;4.18;59.19
66479;BME280;53294;47.912;13.526;2023-02-01T15:01:34;96448.88;;;4.16;58.25
66479;BME280;53294;47.912;13.526;2023-02-01T15:06:46;96457.34;;;4.12;58.30
66479;BME280;53294;47.912;13.526;2023-02-01T15:09:28;96454.69;;;4.12;58.42
66479;BME280;53294;47.912;13.526;2023-02-01T15:12:23;96449.31;;;4.07;58.92
66479;BME280;53294;47.912;13.526;2023-02-01T15:17:41;96453.97;;;4.00;58.76
66479;BME280;53294;47.912;13.526;2023-02-01T15:22:38;96455.84;;;4.00;59.01
66479;BME280;53294;47.912;13.526;2023-02-01T15:25:05;96441.69;;;3.94;59.09
66479;BME280;53294;47.912;13.526;2023-02-01T15:27:33;96444.59;;;3.92;59.96
66479;BME280;53294;47.912;13.526;2023-02-01T15:30:18;96452.31;;;3.94;59.76
66479;BME280;53294;47.912;13.526;2023-02-01T15:32:45;96451.06;;;3.80;60.78
66479;BME280;53294;47.912;13.526;2023-02-01T15:35:52;96442.94;;;3.69;62.42
66479;BME280;53294;47.912;13.526;2023-02-01T15:41:01;96456.72;;;3.66;62.90
66479;BME280;53294;47.912;13.526;2023-02-01T15:43:31;96448.97;;;3.82;62.73
66479;BME280;53294;47.912;13.526;2023-02-01T15:46:00;96464.22;;;3.91;62.74
66479;BME280;53294;47.912;13.526;2023-02-01T15:48:42;96451.38;;;3.83;62.83
66479;BME280;53294;47.912;13.526;2023-02-01T15:51:21;96450.75;;;3.76;63.24